X  Sluiten METAR luchtvaart weer gegevens      LIPX Verona-Villafranca Valerio Catullo Airport
Temperatuur
22°C Temperatuur
20°C Dauwpunt
88% Vochtigheid



Wind
2 M/S
5 MPH
8 KM/U
4 KTS



290°
WNW
Huidig weer

Helder Helder
Luchtdruk 1016.93 (hPa) - 30.03 (inHg)
Zicht 6 (mijl) - 9.7 (km)
Vliegveld
Vliegveld code LIPX

Locatie : Verona-Villafranca Valerio Catullo Airport
Afstand: 0 (km)

Metar:
LIPX 200220Z 29004KT CAVOK 22/20 Q1017

Tijd: 20-06-2024 02:20 CEST